createdAt,value
2022-12-14T00:00:26.952Z,99535.75
2022-12-14T00:01:01.759Z,99536.97
2022-12-14T00:01:33.903Z,99531.28
2022-12-14T00:02:06.804Z,99527.66
2022-12-14T00:02:44.242Z,99524.00
2022-12-14T00:03:17.542Z,99521.97
2022-12-14T00:03:50.619Z,99545.13
2022-12-14T00:04:25.428Z,99535.00
2022-12-14T00:04:57.538Z,99534.38
2022-12-14T00:05:29.636Z,99544.13
2022-12-14T00:06:12.909Z,99528.47
2022-12-14T00:06:45.312Z,99516.13
2022-12-14T00:07:17.474Z,99541.47
2022-12-14T00:07:52.187Z,99527.91
2022-12-14T00:08:24.546Z,99531.56
2022-12-14T00:09:01.901Z,99539.25
2022-12-14T00:09:36.598Z,99530.94
2022-12-14T00:10:09.954Z,99528.69
2022-12-14T00:10:42.391Z,99556.88
2022-12-14T00:11:17.424Z,99525.25
2022-12-14T00:11:49.534Z,99539.25
2022-12-14T00:12:21.736Z,99537.44
2022-12-14T00:12:54.226Z,99533.56
2022-12-14T00:13:28.928Z,99525.47
2022-12-14T00:14:02.678Z,99533.16
2022-12-14T00:14:34.755Z,99540.09
2022-12-14T00:15:10.298Z,99542.72
2022-12-14T00:15:42.849Z,99543.72
2022-12-14T00:16:17.856Z,99524.44
2022-12-14T00:16:52.728Z,99536.03
2022-12-14T00:17:24.860Z,99525.25
2022-12-14T00:17:59.980Z,99526.31
2022-12-14T00:18:34.669Z,99539.66
2022-12-14T00:19:06.837Z,99542.47
2022-12-14T00:19:41.560Z,99537.63
2022-12-14T00:20:15.177Z,99554.25
2022-12-14T00:20:47.274Z,99542.53
2022-12-14T00:21:23.046Z,99540.91
2022-12-14T00:21:55.197Z,99546.78
2022-12-14T00:22:27.315Z,99546.78
2022-12-14T00:23:02.043Z,99537.88
2022-12-14T00:23:38.983Z,99541.13
2022-12-14T00:24:11.657Z,99533.59
2022-12-14T00:24:46.382Z,99533.41
2022-12-14T00:25:18.531Z,99552.69
2022-12-14T00:25:50.665Z,99550.69
2022-12-14T00:26:27.052Z,99552.28
2022-12-14T00:26:59.164Z,99547.81
2022-12-14T00:27:31.262Z,99552.09
2022-12-14T00:28:06.018Z,99560.00
2022-12-14T00:28:38.983Z,99564.28
2022-12-14T00:29:11.122Z,99548.22
2022-12-14T00:29:45.818Z,99554.09
2022-12-14T00:30:20.732Z,99556.13
2022-12-14T00:30:58.470Z,99561.81
2022-12-14T00:31:34.345Z,99543.34
2022-12-14T00:32:06.569Z,99564.44
2022-12-14T00:32:38.666Z,99568.69
2022-12-14T00:33:15.970Z,99555.31
2022-12-14T00:33:48.472Z,99560.41
2022-12-14T00:34:23.200Z,99558.38
2022-12-14T00:34:55.317Z,99564.03
2022-12-14T00:35:27.453Z,99567.28
2022-12-14T00:36:02.211Z,99557.56
2022-12-14T00:36:36.525Z,99548.22
2022-12-14T00:37:08.761Z,99549.00
2022-12-14T00:37:43.546Z,99562.00
2022-12-14T00:38:20.978Z,99559.34
2022-12-14T00:38:53.140Z,99557.53
2022-12-14T00:39:27.858Z,99559.16
2022-12-14T00:40:00.095Z,99556.53
2022-12-14T00:40:32.228Z,99562.41
2022-12-14T00:41:07.473Z,99558.78
2022-12-14T00:41:39.596Z,99562.22
2022-12-14T00:42:14.292Z,99554.91
2022-12-14T00:42:46.387Z,99571.31
2022-12-14T00:43:18.503Z,99578.22
2022-12-14T00:43:53.184Z,99558.13
2022-12-14T00:44:25.323Z,99573.78
2022-12-14T00:45:00.150Z,99563.22
2022-12-14T00:45:32.288Z,99563.22
2022-12-14T00:46:04.662Z,99552.25
2022-12-14T00:46:39.530Z,99575.75
2022-12-14T00:47:11.772Z,99563.38
2022-12-14T00:47:46.529Z,99568.84
2022-12-14T00:48:22.699Z,99561.94
2022-12-14T00:48:57.422Z,99569.66
2022-12-14T00:49:29.510Z,99566.84
2022-12-14T00:50:01.809Z,99557.13
2022-12-14T00:50:36.477Z,99574.53
2022-12-14T00:51:08.545Z,99562.00
2022-12-14T00:51:40.652Z,99566.03
2022-12-14T00:52:15.373Z,99565.22
2022-12-14T00:52:47.492Z,99591.59
2022-12-14T00:53:19.970Z,99568.69
2022-12-14T00:53:54.702Z,99580.25
2022-12-14T00:54:26.811Z,99573.34
2022-12-14T00:54:58.946Z,99578.22
2022-12-14T00:55:33.715Z,99571.53
2022-12-14T00:56:07.151Z,99571.72
2022-12-14T00:56:39.225Z,99560.16
2022-12-14T00:57:13.962Z,99572.97
2022-12-14T00:57:46.093Z,99578.03
2022-12-14T00:58:20.585Z,99573.38
2022-12-14T00:58:55.984Z,99569.91
2022-12-14T00:59:28.131Z,99583.56
2022-12-14T01:00:01.762Z,99589.25
2022-12-14T01:00:36.792Z,99575.06
2022-12-14T01:01:12.669Z,99583.78
2022-12-14T01:01:45.346Z,99574.25
2022-12-14T01:02:23.826Z,99579.69
2022-12-14T01:02:56.207Z,99584.97
2022-12-14T01:03:31.724Z,99587.44
2022-12-14T01:04:19.605Z,99583.97
2022-12-14T01:04:54.359Z,99586.19
2022-12-14T01:05:26.697Z,99587.59
2022-12-14T01:05:58.880Z,99587.59
2022-12-14T01:06:30.970Z,99582.34
2022-12-14T01:07:05.658Z,99581.34
2022-12-14T01:07:37.778Z,99588.44
2022-12-14T01:08:09.965Z,99588.59
2022-12-14T01:08:44.647Z,99592.47
2022-12-14T01:09:17.609Z,99588.81
2022-12-14T01:09:49.742Z,99580.69
2022-12-14T01:10:24.492Z,99588.44
2022-12-14T01:10:56.592Z,99593.69
2022-12-14T01:11:31.436Z,99583.97
2022-12-14T01:12:06.225Z,99583.78
2022-12-14T01:12:38.385Z,99583.78
2022-12-14T01:13:11.339Z,99582.97
2022-12-14T01:13:49.611Z,99582.16
2022-12-14T01:14:22.870Z,99578.06
2022-12-14T01:14:57.522Z,99583.97
2022-12-14T01:15:30.282Z,99571.97
2022-12-14T01:16:04.034Z,99592.06
2022-12-14T01:16:38.971Z,99587.78
2022-12-14T01:17:11.026Z,99583.56
2022-12-14T01:17:43.134Z,99593.28
2022-12-14T01:18:17.833Z,99598.34
2022-12-14T01:18:52.523Z,99588.00
2022-12-14T01:19:27.193Z,99579.28
2022-12-14T01:19:59.278Z,99577.47
2022-12-14T01:20:31.378Z,99577.88
2022-12-14T01:21:14.281Z,99579.50
2022-12-14T01:21:46.504Z,99570.16
2022-12-14T01:22:21.204Z,99582.56
2022-12-14T01:22:54.586Z,99578.72
2022-12-14T01:23:27.096Z,99597.00
2022-12-14T01:24:04.480Z,99587.44
2022-12-14T01:24:36.852Z,99584.63
2022-12-14T01:25:11.912Z,99578.13
2022-12-14T01:25:43.978Z,99583.19
2022-12-14T01:26:21.670Z,99584.19
2022-12-14T01:26:56.358Z,99589.47
2022-12-14T01:27:28.542Z,99585.38
2022-12-14T01:28:00.788Z,99581.75
2022-12-14T01:28:35.117Z,99590.28
2022-12-14T01:29:11.560Z,99591.47
2022-12-14T01:29:43.630Z,99584.56
2022-12-14T01:30:16.864Z,99589.25
2022-12-14T01:30:49.032Z,99585.78
2022-12-14T01:31:25.730Z,99596.16
2022-12-14T01:31:57.860Z,99587.44
2022-12-14T01:32:29.939Z,99585.22
2022-12-14T01:33:04.704Z,99577.47
2022-12-14T01:33:37.153Z,99606.31
2022-12-14T01:34:12.395Z,99601.03
2022-12-14T01:34:47.063Z,99593.13
2022-12-14T01:35:19.276Z,99589.47
2022-12-14T01:35:51.399Z,99592.94
2022-12-14T01:36:27.757Z,99590.09
2022-12-14T01:36:59.853Z,99598.00
2022-12-14T01:37:32.054Z,99592.72
2022-12-14T01:38:06.863Z,99588.47
2022-12-14T01:38:39.248Z,99602.25
2022-12-14T01:39:13.979Z,99596.81
2022-12-14T01:39:49.595Z,99592.72
2022-12-14T01:40:21.675Z,99600.84
2022-12-14T01:40:57.571Z,99594.34
2022-12-14T01:41:32.170Z,99601.44
2022-12-14T01:42:06.874Z,99612.00
2022-12-14T01:42:39.184Z,99599.63
2022-12-14T01:43:13.983Z,99614.44
2022-12-14T01:43:48.808Z,99610.00
2022-12-14T01:44:53.770Z,99605.91
2022-12-14T01:45:25.944Z,99616.84
2022-12-14T01:45:58.887Z,99599.03
2022-12-14T01:46:38.766Z,99612.00
2022-12-14T01:47:18.974Z,99612.22
2022-12-14T01:47:57.993Z,99614.03
2022-12-14T01:48:30.128Z,99610.56
2022-12-14T01:49:07.946Z,99602.44
2022-12-14T01:49:48.273Z,99617.84
2022-12-14T01:50:29.290Z,99608.94
2022-12-14T01:51:04.009Z,99607.94
2022-12-14T01:51:37.642Z,99616.84
2022-12-14T01:52:14.795Z,99605.91
2022-12-14T01:52:52.398Z,99620.72
2022-12-14T01:53:24.810Z,99621.72
2022-12-14T01:53:59.213Z,99611.19
2022-12-14T01:54:36.091Z,99617.09
2022-12-14T01:55:14.303Z,99624.00
2022-12-14T01:55:50.765Z,99629.06
2022-12-14T01:56:25.596Z,99614.84
2022-12-14T01:56:58.042Z,99611.19
2022-12-14T01:57:35.149Z,99613.63
2022-12-14T01:58:17.301Z,99604.31
2022-12-14T01:58:49.506Z,99628.63
2022-12-14T01:59:27.347Z,99603.91
2022-12-14T02:00:07.176Z,99613.44
2022-12-14T02:00:39.635Z,99618.28
2022-12-14T02:01:14.804Z,99614.84
2022-12-14T02:01:47.591Z,99617.28
2022-12-14T02:02:21.934Z,99619.31
2022-12-14T02:03:01.419Z,99624.41
2022-12-14T02:03:37.771Z,99624.19
2022-12-14T02:04:14.086Z,99613.66
2022-12-14T02:04:55.201Z,99622.19
2022-12-14T02:05:28.175Z,99615.28
2022-12-14T02:06:05.870Z,99614.28
2022-12-14T02:06:42.645Z,99615.28
2022-12-14T02:07:16.472Z,99625.84
2022-12-14T02:07:53.134Z,99619.75
2022-12-14T02:08:26.199Z,99632.94
2022-12-14T02:08:58.443Z,99629.47
2022-12-14T02:09:40.168Z,99625.00
2022-12-14T02:10:12.604Z,99633.09
2022-12-14T02:10:48.743Z,99630.28
2022-12-14T02:11:34.909Z,99633.31
2022-12-14T02:12:11.386Z,99614.16
2022-12-14T02:12:50.754Z,99617.63
2022-12-14T02:13:26.032Z,99625.34
2022-12-14T02:13:58.361Z,99636.31
2022-12-14T02:14:34.304Z,99635.13
2022-12-14T02:15:07.323Z,99639.38
2022-12-14T02:15:39.901Z,99645.47
2022-12-14T02:16:14.738Z,99636.38
2022-12-14T02:16:50.097Z,99630.69
2022-12-14T02:17:23.021Z,99639.19
2022-12-14T02:17:57.788Z,99629.47
2022-12-14T02:18:31.858Z,99635.56
2022-12-14T02:19:04.073Z,99636.16
2022-12-14T02:19:40.069Z,99635.97
2022-12-14T02:20:16.739Z,99640.44
2022-12-14T02:21:06.196Z,99628.06
2022-12-14T02:21:59.041Z,99634.09
2022-12-14T02:22:58.347Z,99631.03
2022-12-14T02:23:57.468Z,99633.91
2022-12-14T02:25:02.197Z,99642.59
2022-12-14T02:25:58.299Z,99635.06
2022-12-14T02:26:52.280Z,99647.25
2022-12-14T02:27:45.641Z,99650.31
2022-12-14T02:28:56.799Z,99630.19
2022-12-14T02:29:40.677Z,99649.03
2022-12-14T02:30:16.413Z,99633.78
2022-12-14T02:30:59.073Z,99659.78
2022-12-14T02:31:40.000Z,99659.56
2022-12-14T02:32:28.927Z,99677.66
2022-12-14T02:33:20.610Z,99655.75
2022-12-14T02:33:58.336Z,99645.59
2022-12-14T02:34:39.444Z,99667.47
2022-12-14T02:35:21.708Z,99665.47
2022-12-14T02:35:59.752Z,99663.84
2022-12-14T02:36:42.495Z,99670.75
2022-12-14T02:37:22.375Z,99668.75
2022-12-14T02:38:08.408Z,99653.50
2022-12-14T02:38:51.592Z,99665.47
2022-12-14T02:39:37.421Z,99671.31
2022-12-14T02:40:21.087Z,99672.75
2022-12-14T02:41:04.781Z,99689.59
2022-12-14T02:41:45.230Z,99697.31
2022-12-14T02:42:21.588Z,99681.47
2022-12-14T02:43:04.521Z,99670.69
2022-12-14T02:43:44.988Z,99689.16
2022-12-14T02:44:31.539Z,99673.28
2022-12-14T02:45:11.720Z,99676.19
2022-12-14T02:45:49.080Z,99668.25
2022-12-14T02:46:31.348Z,99667.88
2022-12-14T02:47:10.149Z,99665.63
2022-12-14T02:47:55.468Z,99678.19
2022-12-14T02:48:34.442Z,99662.00
2022-12-14T02:49:12.900Z,99680.66
2022-12-14T02:50:02.366Z,99671.50
2022-12-14T02:50:42.022Z,99678.00
2022-12-14T02:51:22.596Z,99664.19
2022-12-14T02:52:04.141Z,99670.09
2022-12-14T02:52:45.331Z,99662.75
2022-12-14T02:53:24.093Z,99683.03
2022-12-14T02:54:05.348Z,99674.72
2022-12-14T02:54:42.568Z,99689.97
2022-12-14T02:55:18.929Z,99679.81
2022-12-14T02:55:55.794Z,99674.34
2022-12-14T02:56:34.073Z,99722.00
2022-12-14T02:57:13.606Z,99688.72
2022-12-14T02:57:53.681Z,99660.94
2022-12-14T02:58:30.657Z,99680.38
2022-12-14T02:59:07.361Z,99698.28
2022-12-14T02:59:43.278Z,99679.22
2022-12-14T03:00:19.462Z,99671.47
2022-12-14T03:00:56.402Z,99685.28
2022-12-14T03:01:30.544Z,99730.91
2022-12-14T03:02:05.239Z,99700.34
2022-12-14T03:02:40.717Z,99711.63
2022-12-14T03:03:16.990Z,99675.69
2022-12-14T03:03:49.456Z,99688.47
2022-12-14T03:04:21.667Z,99679.97
2022-12-14T03:04:56.560Z,99671.41
2022-12-14T03:05:28.787Z,99703.44
2022-12-14T03:06:03.690Z,99665.03
2022-12-14T03:06:38.363Z,99691.41
2022-12-14T03:07:30.990Z,99697.09
2022-12-14T03:08:05.576Z,99713.47
2022-12-14T03:08:40.312Z,99700.31
2022-12-14T03:09:17.851Z,99688.34
2022-12-14T03:09:50.009Z,99698.81
2022-12-14T03:10:32.526Z,99705.16
2022-12-14T03:11:07.189Z,99699.44
2022-12-14T03:11:47.762Z,99707.09
2022-12-14T03:12:23.892Z,99698.38
2022-12-14T03:13:02.036Z,99693.53
2022-12-14T03:13:40.394Z,99685.44
2022-12-14T03:14:17.606Z,99700.44
2022-12-14T03:14:52.514Z,99707.78
2022-12-14T03:15:31.328Z,99694.59
2022-12-14T03:16:11.334Z,99695.81
2022-12-14T03:16:47.530Z,99698.44
2022-12-14T03:17:27.682Z,99738.78
2022-12-14T03:18:04.470Z,99712.44
2022-12-14T03:18:44.302Z,99728.84
2022-12-14T03:19:20.827Z,99695.81
2022-12-14T03:19:56.452Z,99691.66
2022-12-14T03:20:34.743Z,99706.72
2022-12-14T03:21:10.272Z,99697.19
2022-12-14T03:21:47.588Z,99706.72
2022-12-14T03:22:27.668Z,99716.06
2022-12-14T03:23:02.597Z,99725.63
2022-12-14T03:23:41.648Z,99719.53
2022-12-14T03:24:19.678Z,99709.81
2022-12-14T03:24:55.463Z,99705.31
2022-12-14T03:25:35.665Z,99707.97
2022-12-14T03:26:15.966Z,99707.16
2022-12-14T03:26:52.072Z,99700.81
2022-12-14T03:27:32.564Z,99698.81
2022-12-14T03:28:10.018Z,99699.81
2022-12-14T03:28:46.986Z,99714.00
2022-12-14T03:29:25.480Z,99720.28
2022-12-14T03:30:00.714Z,99701.66
2022-12-14T03:30:59.461Z,99706.44
2022-12-14T03:31:39.694Z,99733.63
2022-12-14T03:32:14.251Z,99708.09
2022-12-14T03:32:49.926Z,99715.19
2022-12-14T03:33:28.498Z,99710.72
2022-12-14T03:34:05.407Z,99696.94
2022-12-14T03:34:52.859Z,99733.00
2022-12-14T03:35:32.111Z,99684.50
2022-12-14T03:36:09.636Z,99718.38
2022-12-14T03:36:45.528Z,99711.50
2022-12-14T03:37:26.236Z,99728.72
2022-12-14T03:38:04.604Z,99731.13
2022-12-14T03:38:41.522Z,99709.59
2022-12-14T03:39:23.248Z,99716.50
2022-12-14T03:39:55.455Z,99719.16
2022-12-14T03:40:34.810Z,99713.06
2022-12-14T03:41:20.466Z,99704.34
2022-12-14T03:42:02.918Z,99697.44
2022-12-14T03:42:42.482Z,99713.41
2022-12-14T03:43:33.250Z,99706.31
2022-12-14T03:44:16.541Z,99698.44
2022-12-14T03:44:57.689Z,99710.34
2022-12-14T03:45:38.506Z,99707.72
2022-12-14T03:46:19.841Z,99704.47
2022-12-14T03:47:00.741Z,99706.28
2022-12-14T03:47:50.429Z,99708.91
2022-12-14T03:48:33.523Z,99739.88
2022-12-14T03:49:16.154Z,99735.00
2022-12-14T03:50:02.623Z,99730.38
2022-12-14T03:50:39.445Z,99726.72
2022-12-14T03:51:20.938Z,99723.25
2022-12-14T03:52:01.315Z,99714.09
2022-12-14T03:52:38.735Z,99732.75
2022-12-14T03:53:16.466Z,99711.84
2022-12-14T03:53:57.222Z,99717.50
2022-12-14T03:54:45.004Z,99718.88
2022-12-14T03:55:26.248Z,99747.47
2022-12-14T03:56:05.027Z,99714.22
2022-12-14T03:56:52.817Z,99719.66
2022-12-14T03:57:38.811Z,99720.47
2022-12-14T03:58:30.169Z,99720.47
2022-12-14T03:59:11.300Z,99731.22
2022-12-14T03:59:50.979Z,99728.38
2022-12-14T04:00:28.514Z,99718.88
2022-12-14T04:01:07.630Z,99723.94
2022-12-14T04:01:53.595Z,99724.75
2022-12-14T04:02:29.911Z,99725.94
2022-12-14T04:03:10.992Z,99719.03
2022-12-14T04:04:00.426Z,99716.25
2022-12-14T04:04:37.953Z,99716.25
2022-12-14T04:05:21.078Z,99726.56
2022-12-14T04:05:59.726Z,99735.13
2022-12-14T04:06:43.585Z,99753.72
2022-12-14T04:07:23.509Z,99744.00
2022-12-14T04:08:05.550Z,99731.84
2022-12-14T04:08:43.892Z,99716.25
2022-12-14T04:09:30.668Z,99723.50
2022-12-14T04:10:28.368Z,99724.50
2022-12-14T04:11:19.107Z,99737.31
2022-12-14T04:12:09.525Z,99729.16
2022-12-14T04:12:57.240Z,99728.31
2022-12-14T04:13:50.414Z,99743.31
2022-12-14T04:14:43.873Z,99752.03
2022-12-14T04:15:43.154Z,99746.94
2022-12-14T04:16:34.431Z,99757.66
2022-12-14T04:17:28.867Z,99747.13
2022-12-14T04:18:21.227Z,99746.13
2022-12-14T04:19:00.800Z,99744.28
2022-12-14T04:19:42.648Z,99752.19
2022-12-14T04:20:22.529Z,99746.94
2022-12-14T04:21:00.499Z,99749.56
2022-12-14T04:21:39.425Z,99746.50
2022-12-14T04:22:17.380Z,99739.59
2022-12-14T04:22:55.643Z,99753.56
2022-12-14T04:23:50.762Z,99743.03
2022-12-14T04:24:49.869Z,99757.19
2022-12-14T04:25:41.967Z,99745.59
2022-12-14T04:26:22.255Z,99762.03
2022-12-14T04:27:00.987Z,99740.41
2022-12-14T04:27:40.153Z,99756.94
2022-12-14T04:28:30.232Z,99764.22
2022-12-14T04:29:22.372Z,99764.22
2022-12-14T04:30:00.494Z,99758.13
2022-12-14T04:30:38.316Z,99764.59
2022-12-14T04:31:16.812Z,99771.94
2022-12-14T04:31:54.086Z,99760.59
2022-12-14T04:32:33.271Z,99757.94
2022-12-14T04:33:23.250Z,99764.66
2022-12-14T04:34:02.362Z,99738.50
2022-12-14T04:34:36.139Z,99746.41
2022-12-14T04:35:14.714Z,99754.13
2022-12-14T04:35:50.267Z,99764.66
2022-12-14T04:36:27.026Z,99761.03
2022-12-14T04:37:03.332Z,99761.41
2022-12-14T04:37:41.615Z,99764.47
2022-12-14T04:38:18.825Z,99763.66
2022-12-14T04:38:55.914Z,99771.13
2022-12-14T04:39:34.203Z,99776.00
2022-12-14T04:40:11.553Z,99774.75
2022-12-14T04:40:52.246Z,99757.13
2022-12-14T04:41:30.748Z,99760.59
2022-12-14T04:42:10.030Z,99778.00
2022-12-14T04:42:48.633Z,99786.91
2022-12-14T04:43:27.247Z,99758.78
2022-12-14T04:44:03.807Z,99775.56
2022-12-14T04:44:42.359Z,99767.47
2022-12-14T04:45:21.028Z,99775.34
2022-12-14T04:46:01.352Z,99766.84
2022-12-14T04:46:38.964Z,99769.84
2022-12-14T04:47:17.299Z,99782.19
2022-12-14T04:48:00.244Z,99783.63
2022-12-14T04:48:39.933Z,99770.09
2022-12-14T04:49:21.915Z,99771.72
2022-12-14T04:50:00.925Z,99776.38
2022-12-14T04:50:40.811Z,99784.72
2022-12-14T04:51:18.347Z,99775.72
2022-12-14T04:52:03.396Z,99765.19
2022-12-14T04:52:45.747Z,99769.84
2022-12-14T04:53:24.700Z,99770.47
2022-12-14T04:54:11.229Z,99770.63
2022-12-14T04:54:52.043Z,99785.66
2022-12-14T04:55:29.070Z,99783.34
2022-12-14T04:56:11.320Z,99777.47
2022-12-14T04:56:49.680Z,99795.69
2022-12-14T04:57:26.915Z,99797.34
2022-12-14T04:58:05.469Z,99802.00
2022-12-14T04:58:40.381Z,99781.38
2022-12-14T04:59:12.952Z,99794.53
2022-12-14T04:59:48.854Z,99786.63
2022-12-14T05:00:21.229Z,99793.72
2022-12-14T05:01:14.743Z,99785.66
2022-12-14T05:01:57.717Z,99783.34
2022-12-14T05:02:43.996Z,99799.16
2022-12-14T05:03:28.845Z,99794.09
2022-12-14T05:04:12.501Z,99792.25
2022-12-14T05:04:58.323Z,99790.63
2022-12-14T05:05:40.799Z,99795.09
2022-12-14T05:06:27.073Z,99811.50
2022-12-14T05:07:11.112Z,99793.88
2022-12-14T05:07:54.919Z,99800.97
2022-12-14T05:08:43.377Z,99798.97
2022-12-14T05:09:26.408Z,99802.59
2022-12-14T05:10:04.014Z,99805.88
2022-12-14T05:10:41.760Z,99806.72
2022-12-14T05:11:52.978Z,99822.69
2022-12-14T05:12:23.466Z,99816.97
2022-12-14T05:13:05.152Z,99808.69
2022-12-14T05:13:43.464Z,99802.59
2022-12-14T05:14:29.998Z,99822.84
2022-12-14T05:15:07.715Z,99805.41
2022-12-14T05:15:47.348Z,99805.41
2022-12-14T05:16:22.393Z,99817.56
2022-12-14T05:16:54.656Z,99823.66
2022-12-14T05:17:30.564Z,99812.97
2022-12-14T05:18:03.351Z,99815.41
2022-12-14T05:18:40.949Z,99812.16
2022-12-14T05:19:15.744Z,99835.00
2022-12-14T05:19:49.871Z,99822.69
2022-12-14T05:20:26.959Z,99827.56
2022-12-14T05:20:59.057Z,99842.09
2022-12-14T05:21:46.366Z,99849.16
2022-12-14T05:22:21.443Z,99818.31
2022-12-14T05:22:53.553Z,99828.03
2022-12-14T05:23:26.022Z,99825.41
2022-12-14T05:24:00.182Z,99823.38
2022-12-14T05:24:35.009Z,99821.56
2022-12-14T05:25:07.997Z,99817.94
2022-12-14T05:25:40.220Z,99835.38
2022-12-14T05:26:14.926Z,99824.31
2022-12-14T05:26:47.065Z,99822.84
2022-12-14T05:27:19.158Z,99823.66
2022-12-14T05:27:53.940Z,99842.25
2022-12-14T05:28:26.098Z,99828.31
2022-12-14T05:28:58.250Z,99825.47
2022-12-14T05:29:33.001Z,99834.56
2022-12-14T05:30:06.786Z,99834.56
2022-12-14T05:30:41.981Z,99842.47
2022-12-14T05:31:14.527Z,99847.06
2022-12-14T05:31:49.236Z,99828.47
2022-12-14T05:32:24.846Z,99853.00
2022-12-14T05:32:57.714Z,99853.53
2022-12-14T05:33:30.560Z,99855.78
2022-12-14T05:34:07.962Z,99845.91
2022-12-14T05:34:40.342Z,99851.63
2022-12-14T05:35:16.614Z,99842.75
2022-12-14T05:35:49.000Z,99850.97
2022-12-14T05:36:21.144Z,99839.84
2022-12-14T05:36:55.853Z,99847.91
2022-12-14T05:37:28.075Z,99868.97
2022-12-14T05:38:02.780Z,99865.34
2022-12-14T05:38:34.918Z,99840.81
2022-12-14T05:39:07.044Z,99877.84
2022-12-14T05:39:41.773Z,99849.09
2022-12-14T05:40:14.146Z,99850.63
2022-12-14T05:40:46.244Z,99856.88
2022-12-14T05:41:20.968Z,99867.41
2022-12-14T05:41:53.529Z,99864.31
2022-12-14T05:42:28.292Z,99858.69
2022-12-14T05:43:07.601Z,99843.72
2022-12-14T05:43:39.709Z,99866.03
2022-12-14T05:44:14.445Z,99869.50
2022-12-14T05:44:46.617Z,99855.72
2022-12-14T05:45:18.829Z,99867.69
2022-12-14T05:45:53.590Z,99857.31
2022-12-14T05:46:25.811Z,99845.44
2022-12-14T05:47:00.669Z,99850.34
2022-12-14T05:47:32.962Z,99850.72
2022-12-14T05:48:05.897Z,99860.25
2022-12-14T05:48:43.705Z,99869.59
2022-12-14T05:49:22.234Z,99858.59
2022-12-14T05:49:56.936Z,99876.81
2022-12-14T05:50:29.077Z,99859.88
2022-12-14T05:51:05.698Z,99868.06
2022-12-14T05:51:40.561Z,99845.53
2022-12-14T05:52:12.704Z,99887.63
2022-12-14T05:52:45.240Z,99866.78
2022-12-14T05:53:20.042Z,99868.59
2022-12-14T05:53:52.136Z,99867.41
2022-12-14T05:54:26.835Z,99870.84
2022-12-14T05:55:03.835Z,99877.94
2022-12-14T05:55:36.765Z,99911.16
2022-12-14T05:56:13.350Z,99878.91
2022-12-14T05:56:45.476Z,99871.50
2022-12-14T05:57:20.372Z,99890.38
2022-12-14T05:57:52.495Z,99872.13
2022-12-14T05:58:25.027Z,99887.75
2022-12-14T05:58:59.935Z,99887.75
2022-12-14T05:59:32.065Z,99894.66
2022-12-14T06:00:07.617Z,99869.31
2022-12-14T06:00:40.254Z,99865.88
2022-12-14T06:01:18.799Z,99881.66
2022-12-14T06:01:54.223Z,99894.81
2022-12-14T06:02:26.496Z,99880.84
2022-12-14T06:03:01.320Z,99883.09
2022-12-14T06:03:33.672Z,99876.84
2022-12-14T06:04:06.060Z,99896.47
2022-12-14T06:04:43.452Z,99902.47
2022-12-14T06:05:15.678Z,99915.97
2022-12-14T06:05:47.816Z,99896.28
2022-12-14T06:06:22.551Z,99892.84
2022-12-14T06:06:55.063Z,99898.13
2022-12-14T06:07:28.215Z,99895.00
2022-12-14T06:08:03.154Z,99912.59
2022-12-14T06:08:36.977Z,99899.09
2022-12-14T06:09:10.773Z,99894.47
2022-12-14T06:09:45.766Z,99896.47
2022-12-14T06:10:17.913Z,99895.28
2022-12-14T06:10:50.105Z,99884.94
2022-12-14T06:11:25.859Z,99887.00
2022-12-14T06:11:58.154Z,99890.28
2022-12-14T06:12:33.534Z,99886.03
2022-12-14T06:13:05.650Z,99885.19
2022-12-14T06:13:39.330Z,99897.81
2022-12-14T06:14:14.938Z,99899.84
2022-12-14T06:14:47.029Z,99885.69
2022-12-14T06:15:19.135Z,99904.28
2022-12-14T06:15:54.000Z,99889.31
2022-12-14T06:16:26.680Z,99893.75
2022-12-14T06:17:01.425Z,99896.22
2022-12-14T06:17:33.565Z,99880.75
2022-12-14T06:18:05.826Z,99889.66
2022-12-14T06:18:44.365Z,99893.91
2022-12-14T06:19:16.537Z,99895.56
2022-12-14T06:19:53.843Z,99903.28
2022-12-14T06:20:27.420Z,99904.72
2022-12-14T06:20:59.981Z,99899.19
2022-12-14T06:21:36.843Z,99913.34
2022-12-14T06:22:09.205Z,99907.44
2022-12-14T06:22:47.355Z,99903.38
2022-12-14T06:23:22.482Z,99918.34
2022-12-14T06:23:55.930Z,99916.34
2022-12-14T06:24:28.060Z,99908.44
2022-12-14T06:25:02.814Z,99927.53
2022-12-14T06:25:34.897Z,99914.81
2022-12-14T06:26:10.402Z,99911.34
2022-12-14T06:26:42.695Z,99942.78
2022-12-14T06:27:17.379Z,99921.22
2022-12-14T06:27:53.218Z,99921.06
2022-12-14T06:28:25.351Z,99906.91
2022-12-14T06:29:01.668Z,99907.72
2022-12-14T06:29:33.790Z,99919.91
2022-12-14T06:30:07.457Z,99933.06
2022-12-14T06:30:42.434Z,99905.28
2022-12-14T06:31:16.663Z,99921.88
2022-12-14T06:31:51.567Z,99926.34
2022-12-14T06:32:23.709Z,99903.28
2022-12-14T06:32:55.935Z,99901.47
2022-12-14T06:33:31.445Z,99924.53
2022-12-14T06:34:03.939Z,99918.25
2022-12-14T06:34:39.815Z,99933.06
2022-12-14T06:35:19.204Z,99921.88
2022-12-14T06:35:51.534Z,99918.88
2022-12-14T06:36:25.421Z,99925.41
2022-12-14T06:37:00.134Z,99923.59
2022-12-14T06:37:32.263Z,99930.69
2022-12-14T06:38:04.414Z,99941.22
2022-12-14T06:38:39.221Z,99920.97
2022-12-14T06:39:13.616Z,99936.25
2022-12-14T06:39:53.972Z,99944.88
2022-12-14T06:40:26.511Z,99943.84
2022-12-14T06:41:01.350Z,99947.69
2022-12-14T06:41:33.659Z,99924.81
2022-12-14T06:42:08.636Z,99923.81
2022-12-14T06:42:40.737Z,99920.16
2022-12-14T06:43:13.022Z,99943.69
2022-12-14T06:43:49.320Z,99942.69
2022-12-14T06:44:21.966Z,99932.00
2022-12-14T06:44:56.700Z,99934.63
2022-12-14T06:45:28.904Z,99931.63
2022-12-14T06:46:01.071Z,99951.31
2022-12-14T06:46:36.095Z,99949.34
2022-12-14T06:47:08.266Z,99943.25
2022-12-14T06:47:41.260Z,99933.53
2022-12-14T06:48:16.024Z,99943.50
2022-12-14T06:48:50.944Z,99936.81
2022-12-14T06:49:26.028Z,99950.97
2022-12-14T06:49:58.595Z,99945.34
2022-12-14T06:50:33.311Z,99941.06
2022-12-14T06:51:09.826Z,99946.97
2022-12-14T06:51:42.290Z,99946.78
2022-12-14T06:52:14.394Z,99942.97
2022-12-14T06:52:51.834Z,99948.06
2022-12-14T06:53:23.946Z,99947.44
2022-12-14T06:54:00.070Z,99943.78
2022-12-14T06:54:32.189Z,99942.97
2022-12-14T06:55:08.057Z,99949.88
2022-12-14T06:55:40.257Z,99945.25
2022-12-14T06:56:17.667Z,99944.25
2022-12-14T06:56:49.832Z,99949.53
2022-12-14T06:57:21.938Z,99958.88
2022-12-14T06:57:57.686Z,99959.06
2022-12-14T06:58:32.589Z,99946.09
2022-12-14T06:59:09.343Z,99944.25
2022-12-14T06:59:41.439Z,99937.97
2022-12-14T07:00:17.517Z,99948.19
2022-12-14T07:00:49.758Z,99946.97
2022-12-14T07:01:26.987Z,99953.88
2022-12-14T07:01:59.221Z,99960.59
2022-12-14T07:02:34.212Z,99961.41
2022-12-14T07:03:06.754Z,99965.25
2022-12-14T07:03:39.849Z,99950.06
2022-12-14T07:07:52.681Z,99966.94
2022-12-14T07:08:25.887Z,99962.72
2022-12-14T07:08:59.737Z,99964.16
2022-12-14T07:09:34.443Z,99957.06
2022-12-14T07:10:08.470Z,99993.66
2022-12-14T07:10:40.673Z,99971.59
2022-12-14T07:11:17.618Z,99972.22
2022-12-14T07:11:50.796Z,99973.03
2022-12-14T07:12:25.672Z,99988.50
2022-12-14T07:12:57.870Z,99967.22
2022-12-14T07:13:30.796Z,99969.69
2022-12-14T07:14:07.217Z,99972.50
2022-12-14T07:14:39.392Z,99985.66
2022-12-14T07:15:11.998Z,99990.94
2022-12-14T07:15:46.958Z,99981.22
2022-12-14T07:16:21.937Z,99978.75
2022-12-14T07:16:54.082Z,99980.22